Time;durP1;ratioP1;P1;durP2;ratioP2;P2;SDS_P1;SDS_P2;PMS_P1;PMS_P2;Temp;Humidity;BMP_temperature;BMP_pressure;BME280_temperature;BME280_humidity;BME280_pressure;Samples;Min_cycle;Max_cycle;Signal;HPM_P1;HPM_P2
2022/08/02 00:01:53;;;;;;;2.70;0.90;;;17.70;99.90;;;;;;4839918;29;37885;-81
2022/08/02 00:04:19;;;;;;;5.53;0.90;;;17.70;99.90;;;;;;4855732;29;40057;-81
2022/08/02 00:06:45;;;;;;;4.80;1.38;;;17.60;99.90;;;;;;4836487;29;38321;-81
2022/08/02 00:09:12;;;;;;;4.80;1.25;;;17.70;99.90;;;;;;4828411;29;39142;-81
2022/08/02 00:11:38;;;;;;;2.53;1.02;;;17.70;99.90;;;;;;4850372;29;37836;-81
2022/08/02 00:14:04;;;;;;;3.92;1.20;;;17.80;99.90;;;;;;4834484;29;38829;-81
2022/08/02 00:16:30;;;;;;;4.28;1.60;;;17.70;99.90;;;;;;4835124;29;37883;-81
2022/08/02 00:18:56;;;;;;;4.55;1.23;;;17.70;99.90;;;;;;4835850;29;37302;-81
2022/08/02 00:21:22;;;;;;;4.80;1.00;;;17.70;99.90;;;;;;4840163;29;36374;-81
2022/08/02 00:23:48;;;;;;;4.70;1.10;;;17.70;99.90;;;;;;4831786;29;39902;-81
2022/08/02 00:26:15;;;;;;;5.07;1.30;;;17.70;99.90;;;;;;4853605;29;37671;-81
2022/08/02 00:28:41;;;;;;;3.22;1.20;;;17.60;99.90;;;;;;4834212;29;38097;-81
2022/08/02 00:31:07;;;;;;;3.00;1.20;;;17.60;99.90;;;;;;4834551;29;37541;-80
2022/08/02 00:33:33;;;;;;;5.28;1.50;;;17.60;99.90;;;;;;4852994;29;39379;-80
2022/08/02 00:35:59;;;;;;;3.70;1.73;;;17.50;99.90;;;;;;4856495;29;38556;-81
2022/08/02 00:38:25;;;;;;;3.30;1.20;;;17.50;99.90;;;;;;4843450;29;37608;-81
2022/08/02 00:40:51;;;;;;;3.25;1.05;;;17.50;99.90;;;;;;4845886;29;36356;-82
2022/08/02 00:43:18;;;;;;;4.22;1.50;;;17.50;99.90;;;;;;4852435;29;38344;-81
2022/08/02 00:45:44;;;;;;;5.88;1.35;;;17.40;99.90;;;;;;4842041;29;40938;-82
2022/08/02 00:48:12;;;;;;;4.18;1.30;;;17.40;99.90;;;;;;4863340;29;37744;-81
2022/08/02 00:50:39;;;;;;;4.32;1.40;;;17.40;99.90;;;;;;4858576;29;37799;-83
2022/08/02 00:53:08;;;;;;;2.03;1.27;;;17.50;99.90;;;;;;4841084;29;38083;-81
2022/08/02 00:55:35;;;;;;;3.22;1.23;;;17.40;99.90;;;;;;4840336;29;38907;-82
2022/08/02 00:58:02;;;;;;;5.65;1.48;;;17.30;99.90;;;;;;4838278;29;38085;-82
2022/08/02 01:00:28;;;;;;;2.50;1.27;;;17.30;99.90;;;;;;4835478;29;47027;-81
2022/08/02 01:02:54;;;;;;;5.20;1.50;;;17.20;99.90;;;;;;4855326;29;36900;-82
2022/08/02 01:05:20;;;;;;;3.20;1.40;;;17.30;99.90;;;;;;4852925;29;37606;-82
2022/08/02 01:07:46;;;;;;;2.75;1.60;;;17.30;99.90;;;;;;4851182;29;39140;-83
2022/08/02 01:10:12;;;;;;;4.65;1.17;;;17.10;99.90;;;;;;4851955;29;37173;-82
2022/08/02 01:12:38;;;;;;;3.65;1.17;;;17.10;99.90;;;;;;4837713;29;36850;-83
2022/08/02 01:15:08;;;;;;;5.50;1.30;;;17.10;99.90;;;;;;4856664;29;39988;-84
2022/08/02 01:17:42;;;;;;;3.70;1.05;;;17.10;99.90;;;;;;4855046;29;38803;-83
2022/08/02 01:20:42;;;;;;;2.58;1.25;;;17.10;99.90;;;;;;4841266;29;37217;-82
2022/08/02 01:23:32;;;;;;;4.63;1.60;;;17.10;99.90;;;;;;4855259;29;38573;-82
2022/08/02 01:25:58;;;;;;;3.28;1.30;;;17.10;99.90;;;;;;4841928;29;37329;-83
2022/08/02 01:28:42;;;;;;;6.28;1.50;;;17.10;99.90;;;;;;4860704;29;39096;-82
2022/08/02 01:31:24;;;;;;;4.63;1.33;;;17.10;99.90;;;;;;4842592;29;36938;-82
2022/08/02 01:34:04;;;;;;;2.88;1.35;;;17.00;99.90;;;;;;4837272;29;39508;-82
2022/08/02 01:36:37;;;;;;;3.42;1.00;;;17.00;99.90;;;;;;4843347;29;47462;-80
2022/08/02 01:39:07;;;;;;;2.47;1.30;;;16.90;99.90;;;;;;4842227;29;39171;-83
2022/08/02 01:41:34;;;;;;;3.17;1.30;;;16.90;99.90;;;;;;4847657;29;36058;-83
2022/08/02 01:44:02;;;;;;;2.88;1.10;;;17.00;99.90;;;;;;4860966;29;38449;-82
2022/08/02 01:46:30;;;;;;;2.67;1.23;;;16.90;99.90;;;;;;4838985;29;47241;-84
2022/08/02 01:49:01;;;;;;;2.28;1.25;;;16.90;99.90;;;;;;4839152;29;37542;-83
2022/08/02 01:54:18;;;;;;;2.88;1.15;;;16.80;99.90;;;;;;4858668;29;39226;-83
2022/08/02 01:56:45;;;;;;;1.80;1.25;;;16.80;99.90;;;;;;4860356;29;37670;-83
2022/08/02 01:59:15;;;;;;;2.88;1.20;;;16.80;99.90;;;;;;4857593;29;37092;-83
2022/08/02 02:01:42;;;;;;;3.28;1.42;;;16.70;99.90;;;;;;4841142;29;36332;-83
2022/08/02 02:04:09;;;;;;;3.05;1.17;;;16.70;99.90;;;;;;4863309;29;38940;-83
2022/08/02 02:06:36;;;;;;;5.85;1.23;;;16.80;99.90;;;;;;4842623;29;38741;-83
2022/08/02 02:09:04;;;;;;;3.85;1.33;;;16.70;99.90;;;;;;4840793;29;37284;-83
2022/08/02 02:11:32;;;;;;;3.38;1.27;;;16.70;99.90;;;;;;4839004;29;37610;-83
2022/08/02 02:14:00;;;;;;;2.50;1.27;;;16.70;99.90;;;;;;4859590;29;38435;-83
2022/08/02 02:16:27;;;;;;;3.40;1.40;;;16.70;99.90;;;;;;4842652;29;48014;-83
2022/08/02 02:18:54;;;;;;;2.35;1.25;;;16.70;99.90;;;;;;4859149;29;37276;-83
2022/08/02 02:21:20;;;;;;;4.43;1.58;;;16.70;99.90;;;;;;4861278;29;36934;-82
2022/08/02 02:23:46;;;;;;;3.95;1.50;;;16.70;99.90;;;;;;4844973;29;37677;-82
2022/08/02 02:26:15;;;;;;;5.07;1.48;;;16.70;99.90;;;;;;4858001;29;39336;-82
2022/08/02 02:28:46;;;;;;;1.65;1.05;;;16.70;99.90;;;;;;4840624;29;37565;-83
2022/08/02 02:31:17;;;;;;;3.35;1.20;;;16.70;99.90;;;;;;4858409;29;35891;-84
2022/08/02 02:33:51;;;;;;;4.88;1.17;;;16.80;99.90;;;;;;4858048;29;39512;-83
2022/08/02 02:36:19;;;;;;;3.72;1.40;;;16.70;99.90;;;;;;4860169;29;38953;-84
2022/08/02 02:38:47;;;;;;;4.85;1.40;;;16.70;99.90;;;;;;4854707;29;38446;-83
2022/08/02 02:41:17;;;;;;;2.80;1.02;;;16.70;99.90;;;;;;4838490;29;36550;-83
2022/08/02 02:43:44;;;;;;;3.17;1.08;;;16.60;99.90;;;;;;4844639;29;39105;-83
2022/08/02 02:46:12;;;;;;;4.10;1.20;;;16.60;99.90;;;;;;4861243;29;38790;-83
2022/08/02 02:48:39;;;;;;;1.95;1.10;;;16.70;99.90;;;;;;4837721;29;37743;-83
2022/08/02 02:51:06;;;;;;;3.72;1.33;;;16.60;99.90;;;;;;4864257;29;36985;-83
2022/08/02 02:53:35;;;;;;;5.32;1.77;;;16.60;99.90;;;;;;4852126;29;37881;-83
2022/08/02 02:56:01;;;;;;;2.63;1.05;;;16.60;99.90;;;;;;4850663;29;39248;-82
2022/08/02 02:58:28;;;;;;;3.90;1.42;;;16.50;99.90;;;;;;4851494;29;37264;-83
2022/08/02 03:03:40;;;;;;;4.05;1.35;;;16.60;99.90;;;;;;4868036;29;48462;-83
2022/08/02 03:06:06;;;;;;;6.13;1.55;;;16.50;99.90;;;;;;4846894;29;38276;-83
2022/08/02 03:08:32;;;;;;;4.78;1.60;;;16.50;99.90;;;;;;4839090;29;38895;-84
2022/08/02 03:10:59;;;;;;;3.17;1.60;;;16.50;99.90;;;;;;4854614;29;38150;-83
2022/08/02 03:13:25;;;;;;;3.60;1.33;;;16.60;99.90;;;;;;4839151;29;39109;-82
2022/08/02 03:15:54;;;;;;;3.15;1.02;;;16.60;99.90;;;;;;4841319;29;39142;-83
2022/08/02 03:18:38;;;;;;;2.38;1.10;;;16.60;99.90;;;;;;4838818;29;37188;-83
2022/08/02 03:21:13;;;;;;;2.03;1.10;;;16.60;99.90;;;;;;4833598;29;36518;-83
2022/08/02 03:23:41;;;;;;;4.72;1.52;;;16.50;99.90;;;;;;4838531;29;39089;-83
2022/08/02 03:26:08;;;;;;;4.20;1.30;;;16.50;99.90;;;;;;4839566;29;39214;-83
2022/08/02 03:28:34;;;;;;;1.98;1.27;;;16.50;99.90;;;;;;4856321;29;39216;-82
2022/08/02 03:31:01;;;;;;;3.55;1.50;;;16.50;99.90;;;;;;4843937;29;38185;-84
2022/08/02 03:33:27;;;;;;;2.80;1.63;;;16.40;99.90;;;;;;4859192;29;46900;-81
2022/08/02 03:35:58;;;;;;;5.63;1.40;;;16.30;99.90;;;;;;4835193;29;38126;-83
2022/08/02 03:38:25;;;;;;;2.58;1.27;;;16.30;99.90;;;;;;4850529;29;38389;-79
2022/08/02 03:40:53;;;;;;;5.60;2.10;;;16.30;99.90;;;;;;4838237;29;37254;-84
2022/08/02 03:43:20;;;;;;;2.92;1.50;;;16.30;99.90;;;;;;4842550;29;38390;-82
2022/08/02 03:45:47;;;;;;;4.65;1.77;;;16.30;99.90;;;;;;4838738;29;37486;-85
2022/08/02 03:48:14;;;;;;;4.18;1.70;;;16.40;99.90;;;;;;4838872;29;37416;-83
2022/08/02 03:50:42;;;;;;;3.28;1.52;;;16.50;99.90;;;;;;4853075;29;36682;-83
2022/08/02 03:53:08;;;;;;;4.93;1.85;;;16.50;99.90;;;;;;4839862;29;37784;-82
2022/08/02 03:55:35;;;;;;;5.00;1.60;;;16.40;99.90;;;;;;4854915;29;39010;-83
2022/08/02 03:58:01;;;;;;;5.97;1.70;;;16.30;99.90;;;;;;4852884;29;38194;-82
2022/08/02 04:00:27;;;;;;;3.50;1.70;;;16.30;99.90;;;;;;4836320;29;36099;-83
2022/08/02 04:02:53;;;;;;;4.38;1.90;;;16.40;99.90;;;;;;4855122;29;39557;-83
2022/08/02 04:05:19;;;;;;;5.03;2.20;;;16.30;99.90;;;;;;4839195;29;38820;-83
2022/08/02 04:07:47;;;;;;;5.45;1.55;;;16.30;99.90;;;;;;4854252;29;38227;-82
2022/08/02 04:10:14;;;;;;;5.70;2.00;;;16.30;99.90;;;;;;4838656;29;36798;-84
2022/08/02 04:12:40;;;;;;;5.18;1.95;;;16.30;99.90;;;;;;4835114;29;36097;-85
2022/08/02 04:15:08;;;;;;;4.05;1.98;;;16.40;99.90;;;;;;4856735;29;38500;-84
2022/08/02 04:17:39;;;;;;;3.25;1.67;;;16.50;99.90;;;;;;4854946;29;37159;-85
2022/08/02 04:20:11;;;;;;;4.70;1.70;;;16.50;99.90;;;;;;4850050;29;37338;-84
2022/08/02 04:22:51;;;;;;;3.88;1.80;;;16.50;99.90;;;;;;4834540;29;37813;-84
2022/08/02 04:25:19;;;;;;;3.88;1.83;;;16.50;99.90;;;;;;4835338;29;37681;-84
2022/08/02 04:27:46;;;;;;;4.82;1.70;;;16.40;99.90;;;;;;4851233;29;38516;-85
2022/08/02 04:30:14;;;;;;;3.90;1.75;;;16.40;99.90;;;;;;4837915;29;36081;-85
2022/08/02 04:32:41;;;;;;;5.25;1.83;;;16.50;99.90;;;;;;4847071;29;37948;-85
2022/08/02 04:35:08;;;;;;;2.63;1.85;;;16.40;99.90;;;;;;4835953;29;37572;-84
2022/08/02 04:37:36;;;;;;;3.38;1.70;;;16.40;99.90;;;;;;4838258;29;38140;-84
2022/08/02 04:40:03;;;;;;;3.13;1.65;;;16.40;99.90;;;;;;4835494;29;36258;-82
2022/08/02 04:42:29;;;;;;;3.95;2.35;;;16.30;99.90;;;;;;4835159;29;40259;-84
2022/08/02 04:44:56;;;;;;;4.72;2.08;;;16.30;99.90;;;;;;4858603;29;39030;-83
2022/08/02 04:47:23;;;;;;;5.97;1.92;;;16.30;99.90;;;;;;4858915;29;38817;-84
2022/08/02 04:49:49;;;;;;;5.00;1.95;;;16.30;99.90;;;;;;4844889;29;36795;-83
2022/08/02 04:52:15;;;;;;;4.55;2.33;;;16.30;99.90;;;;;;4832797;29;35552;-84
2022/08/02 04:54:41;;;;;;;4.47;2.42;;;16.30;99.90;;;;;;4845772;29;38483;-83
2022/08/02 04:59:52;;;;;;;4.65;2.30;;;16.30;99.90;;;;;;4857753;29;38219;-82
2022/08/02 05:02:18;;;;;;;5.00;2.30;;;16.30;99.90;;;;;;4840545;29;38169;-84
2022/08/02 05:04:44;;;;;;;4.30;2.55;;;16.30;99.90;;;;;;4838215;29;39415;-85
2022/08/02 05:07:10;;;;;;;4.80;2.42;;;16.40;99.90;;;;;;4835625;29;38881;-84
2022/08/02 05:09:36;;;;;;;5.47;2.40;;;16.40;99.90;;;;;;4836377;29;36212;-85
2022/08/02 05:12:03;;;;;;;4.65;2.42;;;16.50;99.90;;;;;;4835548;29;38560;-84
2022/08/02 05:14:29;;;;;;;6.43;3.10;;;16.60;99.90;;;;;;4841935;29;39614;-84
2022/08/02 05:16:55;;;;;;;7.68;2.70;;;16.70;99.90;;;;;;4836811;29;37173;-85
2022/08/02 05:19:21;;;;;;;7.78;3.10;;;16.80;99.90;;;;;;4834485;29;35907;-85
2022/08/02 05:21:47;;;;;;;4.65;2.65;;;16.80;99.90;;;;;;4845100;29;38624;-85
2022/08/02 05:24:13;;;;;;;11.20;3.47;;;16.80;99.90;;;;;;4842919;29;38214;-84
2022/08/02 05:27:00;;;;;;;;;;;;;;;;;;;;;
2022/08/02 05:29:26;;;;;;;6.65;3.25;;;16.90;99.90;;;;;;4839975;29;39418;-81
2022/08/02 05:31:53;;;;;;;4.40;3.40;;;17.00;99.90;;;;;;4835249;29;38855;-79
2022/08/02 05:34:19;;;;;;;6.88;3.63;;;17.00;99.90;;;;;;4837356;29;38905;-80
2022/08/02 05:36:45;;;;;;;5.88;3.65;;;17.10;99.90;;;;;;4855766;29;38440;-80
2022/08/02 05:39:11;;;;;;;7.47;3.30;;;17.20;99.90;;;;;;4851487;29;37015;-79
2022/08/02 05:41:37;;;;;;;6.53;4.05;;;17.20;99.90;;;;;;4838259;29;39413;-80
2022/08/02 05:44:03;;;;;;;4.28;3.40;;;17.30;99.90;;;;;;4854422;29;39582;-77
2022/08/02 05:46:30;;;;;;;6.90;3.33;;;17.50;99.90;;;;;;4846586;29;40908;-76
2022/08/02 05:48:56;;;;;;;7.10;3.70;;;17.50;99.90;;;;;;4847476;29;36110;-79
2022/08/02 05:51:31;;;;;;;4.88;3.30;;;17.50;99.90;;;;;;4867069;29;38968;-83
2022/08/02 05:54:17;;;;;;;10.13;4.22;;;17.50;99.90;;;;;;4842468;29;37501;-78
2022/08/02 05:57:03;;;;;;;11.20;4.40;;;17.60;99.90;;;;;;4863583;29;49009;-77
2022/08/02 05:59:48;;;;;;;9.23;4.72;;;17.70;99.90;;;;;;4843775;29;47173;-79
2022/08/02 06:02:42;;;;;;;10.05;5.05;;;17.80;99.90;;;;;;4848169;29;39997;-80
2022/08/02 06:05:15;;;;;;;8.20;5.45;;;17.90;99.90;;;;;;4867185;29;39004;-79
2022/08/02 06:07:43;;;;;;;8.25;5.72;;;18.00;99.90;;;;;;4866231;29;39237;-80
2022/08/02 06:10:12;;;;;;;6.68;5.00;;;18.00;99.90;;;;;;4867687;29;38136;-79
2022/08/02 06:12:53;;;;;;;10.90;6.30;;;18.10;99.90;;;;;;4846493;29;39283;-79
2022/08/02 06:15:19;;;;;;;12.98;7.65;;;18.30;99.90;;;;;;4866600;29;39787;-79
2022/08/02 06:17:46;;;;;;;10.98;6.20;;;18.30;99.90;;;;;;4850190;29;37102;-77
2022/08/02 06:20:13;;;;;;;15.15;7.38;;;18.50;99.90;;;;;;4867262;29;37289;-76
2022/08/02 06:22:43;;;;;;;13.32;7.78;;;18.80;99.90;;;;;;4874800;29;38780;-77
2022/08/02 06:25:11;;;;;;;24.00;10.05;;;18.90;99.90;;;;;;4883709;29;38837;-76
2022/08/02 06:27:39;;;;;;;44.45;14.40;;;19.10;99.90;;;;;;4846496;29;37133;-77
2022/08/02 06:30:09;;;;;;;27.90;13.18;;;19.20;99.90;;;;;;4847855;29;36638;-77
2022/08/02 06:32:35;;;;;;;22.48;12.25;;;19.30;99.90;;;;;;4838797;29;37818;-78
2022/08/02 06:35:03;;;;;;;18.25;11.52;;;19.40;99.90;;;;;;4830682;29;39153;-76
2022/08/02 06:37:51;;;;;;;25.35;13.68;;;19.50;99.90;;;;;;4842235;29;47376;-77
2022/08/02 06:40:17;;;;;;;26.45;14.32;;;19.60;99.90;;;;;;4842508;29;38112;-78
2022/08/02 06:43:12;;;;;;;20.02;11.95;;;19.70;99.90;;;;;;4826952;29;39334;-77
2022/08/02 06:45:39;;;;;;;17.20;11.90;;;19.80;99.90;;;;;;4822100;29;47393;-77
2022/08/02 06:48:06;;;;;;;20.85;13.55;;;20.10;99.90;;;;;;4842735;29;39160;-77
2022/08/02 06:50:33;;;;;;;19.27;12.32;;;20.40;99.90;;;;;;4820793;29;37803;-78
2022/08/02 06:52:59;;;;;;;24.45;13.75;;;20.70;99.90;;;;;;4823439;29;38457;-77
2022/08/02 06:55:27;;;;;;;22.38;13.55;;;20.80;99.90;;;;;;4824136;29;39480;-78
2022/08/02 06:57:54;;;;;;;21.75;13.75;;;20.90;99.90;;;;;;4848912;29;37857;-80
2022/08/02 07:00:20;;;;;;;14.07;11.43;;;21.10;99.90;;;;;;4841242;29;37192;-79
2022/08/02 07:02:47;;;;;;;15.80;10.95;;;21.40;99.90;;;;;;4837981;29;38388;-80
2022/08/02 07:05:13;;;;;;;15.98;10.80;;;21.50;99.90;;;;;;4825597;29;37804;-81
2022/08/02 07:07:40;;;;;;;14.48;10.77;;;21.70;99.90;;;;;;4838937;29;39519;-82
2022/08/02 07:10:09;;;;;;;13.00;9.70;;;21.80;99.90;;;;;;4843262;29;37692;-82
2022/08/02 07:12:37;;;;;;;11.98;9.35;;;21.80;99.90;;;;;;4842888;29;38131;-78
2022/08/02 07:15:06;;;;;;;17.95;11.60;;;22.00;99.90;;;;;;4824533;29;36087;-79
2022/08/02 07:17:34;;;;;;;15.13;10.80;;;22.10;99.90;;;;;;4842206;29;38537;-78
2022/08/02 07:20:00;;;;;;;20.23;12.07;;;22.20;99.90;;;;;;4827834;29;36155;-80
2022/08/02 07:22:27;;;;;;;15.85;10.10;;;22.30;99.90;;;;;;4821698;29;39726;-77
2022/08/02 07:24:55;;;;;;;15.70;10.93;;;22.40;99.90;;;;;;4842095;29;39104;-78
2022/08/02 07:27:22;;;;;;;16.38;11.07;;;22.70;99.90;;;;;;4840372;29;37964;-77
2022/08/02 07:29:51;;;;;;;15.02;11.10;;;22.70;99.90;;;;;;4824937;29;36132;-79
2022/08/02 07:32:18;;;;;;;17.08;11.65;;;22.50;99.90;;;;;;4830936;29;37448;-79
2022/08/02 07:34:45;;;;;;;14.48;10.60;;;22.30;99.90;;;;;;4858624;29;38722;-79
2022/08/02 07:37:12;;;;;;;14.88;10.48;;;22.30;99.90;;;;;;4854400;29;37445;-79
2022/08/02 07:39:38;;;;;;;15.98;10.60;;;22.60;99.90;;;;;;4859960;29;38200;-81
2022/08/02 07:42:04;;;;;;;12.27;9.90;;;22.60;99.90;;;;;;4841974;29;38780;-79
2022/08/02 07:44:33;;;;;;;13.77;10.90;;;22.50;99.90;;;;;;4861851;29;38420;-79
2022/08/02 07:47:03;;;;;;;15.45;12.05;;;22.60;99.90;;;;;;4842247;29;37435;-78
2022/08/02 07:49:29;;;;;;;12.45;9.90;;;22.50;99.90;;;;;;4858171;29;49045;-81
2022/08/02 07:51:56;;;;;;;20.33;12.00;;;22.80;99.90;;;;;;4859997;29;38979;-79
2022/08/02 07:54:22;;;;;;;12.93;10.88;;;23.00;99.90;;;;;;4840465;29;37719;-83
2022/08/02 07:56:49;;;;;;;15.00;10.90;;;22.80;99.90;;;;;;4841601;29;40545;-81
2022/08/02 07:59:15;;;;;;;18.17;12.52;;;22.80;99.90;;;;;;4857150;29;37133;-78
2022/08/02 08:01:41;;;;;;;14.77;11.75;;;22.80;99.90;;;;;;4862851;29;37605;-79
2022/08/02 08:04:07;;;;;;;13.40;10.40;;;22.80;99.90;;;;;;4844203;29;38359;-79
2022/08/02 08:06:33;;;;;;;11.32;9.25;;;22.80;99.90;;;;;;4860316;29;38391;-79
2022/08/02 08:08:59;;;;;;;10.35;8.27;;;23.00;99.90;;;;;;4861537;29;37430;-79
2022/08/02 08:11:25;;;;;;;14.43;9.35;;;23.20;99.90;;;;;;4841810;29;37430;-80
2022/08/02 08:13:52;;;;;;;10.70;9.60;;;22.90;99.90;;;;;;4843697;29;39177;-79
2022/08/02 08:16:18;;;;;;;10.43;8.27;;;22.70;99.90;;;;;;4844493;29;37364;-79
2022/08/02 08:18:45;;;;;;;12.57;8.07;;;22.90;99.90;;;;;;4836162;29;36985;-79
2022/08/02 08:21:11;;;;;;;12.60;7.35;;;23.10;99.90;;;;;;4840289;29;38137;-79
2022/08/02 08:23:37;;;;;;;11.82;8.85;;;23.10;99.90;;;;;;4861295;29;39145;-79
2022/08/02 08:26:03;;;;;;;9.75;6.68;;;23.40;99.90;;;;;;4840561;29;37516;-79
2022/08/02 08:28:29;;;;;;;7.88;7.10;;;23.60;99.90;;;;;;4841980;29;36443;-79
2022/08/02 08:30:56;;;;;;;10.57;7.35;;;23.90;99.90;;;;;;4846430;29;35860;-80
2022/08/02 08:33:22;;;;;;;8.00;5.60;;;23.80;99.90;;;;;;4836915;29;37013;-81
2022/08/02 08:35:48;;;;;;;8.15;6.85;;;23.60;99.90;;;;;;4825094;29;35663;-78
2022/08/02 08:38:14;;;;;;;7.47;6.68;;;23.50;99.90;;;;;;4832213;29;37359;-78
2022/08/02 08:40:41;;;;;;;17.30;6.07;;;23.60;99.90;;;;;;4824985;29;37892;-78
2022/08/02 08:43:07;;;;;;;7.18;6.45;;;23.70;99.90;;;;;;4824542;29;37714;-78
2022/08/02 08:45:34;;;;;;;8.63;6.35;;;23.50;99.90;;;;;;4825479;29;39137;-78
2022/08/02 08:48:12;;;;;;;9.82;6.25;;;23.70;99.90;;;;;;4843690;29;37963;-78
2022/08/02 08:50:50;;;;;;;7.10;5.82;;;24.10;99.90;;;;;;4842114;29;46769;-77
2022/08/02 08:53:16;;;;;;;8.20;5.45;;;24.30;99.90;;;;;;4826764;29;39036;-77
2022/08/02 08:55:43;;;;;;;7.88;5.05;;;24.60;99.90;;;;;;4842569;29;39238;-77
2022/08/02 08:58:11;;;;;;;8.20;5.10;;;25.00;99.90;;;;;;4836029;29;37540;-78
2022/08/02 09:00:37;;;;;;;7.10;5.32;;;25.20;99.90;;;;;;4853811;29;39550;-77
2022/08/02 09:03:05;;;;;;;4.75;4.15;;;24.70;99.90;;;;;;4834821;29;39142;-77
2022/08/02 09:05:34;;;;;;;6.63;4.20;;;24.60;99.90;;;;;;4837093;29;38587;-77
2022/08/02 09:08:00;;;;;;;5.55;4.18;;;24.80;99.90;;;;;;4836482;29;37313;-78
2022/08/02 09:10:39;;;;;;;5.85;4.90;;;24.80;99.90;;;;;;4836298;29;38469;-77
2022/08/02 09:13:12;;;;;;;5.88;3.80;;;24.60;99.90;;;;;;4846790;29;38302;-76
2022/08/02 09:15:40;;;;;;;7.85;4.18;;;24.50;99.90;;;;;;4832722;29;37760;-76
2022/08/02 09:18:06;;;;;;;6.65;5.38;;;24.90;99.90;;;;;;4850818;29;36889;-77
2022/08/02 09:20:34;;;;;;;5.65;3.92;;;24.80;99.90;;;;;;4853121;29;37468;-74
2022/08/02 09:23:08;;;;;;;7.13;4.05;;;24.90;99.90;;;;;;4854691;29;39912;-74
2022/08/02 09:25:35;;;;;;;6.10;4.00;;;25.00;99.90;;;;;;4838146;29;47593;-76
2022/08/02 09:28:04;;;;;;;8.25;5.47;;;25.10;99.90;;;;;;4831842;29;38256;-76
2022/08/02 09:30:32;;;;;;;6.55;4.72;;;24.90;99.90;;;;;;4847202;29;39191;-76
2022/08/02 09:32:58;;;;;;;8.48;4.82;;;24.70;99.90;;;;;;4841527;29;38248;-76
2022/08/02 09:35:32;;;;;;;6.03;4.30;;;25.10;99.90;;;;;;4866632;29;38774;-76
2022/08/02 09:38:11;;;;;;;8.25;4.40;;;25.30;99.90;;;;;;4852595;29;37194;-76
2022/08/02 09:40:39;;;;;;;7.50;5.07;;;25.30;99.90;;;;;;4846412;29;46856;-77
2022/08/02 09:43:07;;;;;;;8.20;5.38;;;25.30;99.90;;;;;;4868365;29;38682;-77
2022/08/02 09:45:34;;;;;;;6.22;4.78;;;25.10;99.90;;;;;;4852960;29;37663;-77
2022/08/02 09:48:07;;;;;;;5.97;5.15;;;25.00;99.90;;;;;;4856412;29;37153;-77
2022/08/02 09:50:35;;;;;;;10.18;5.10;;;25.00;99.90;;;;;;4865130;29;48501;-76
2022/08/02 09:53:02;;;;;;;6.82;5.57;;;24.90;99.90;;;;;;4848481;29;38425;-77
2022/08/02 09:55:28;;;;;;;7.40;4.93;;;24.80;99.90;;;;;;4852724;29;39069;-77
2022/08/02 09:57:54;;;;;;;7.32;5.25;;;25.00;99.90;;;;;;4846219;29;36306;-76
2022/08/02 10:00:21;;;;;;;6.97;3.90;;;25.00;99.90;;;;;;4867493;29;37725;-79
2022/08/02 10:03:07;;;;;;;6.20;4.90;;;25.10;99.90;;;;;;4849512;29;38854;-77
2022/08/02 10:05:53;;;;;;;6.20;5.03;;;25.30;99.90;;;;;;4862647;29;48417;-77
2022/08/02 10:08:20;;;;;;;5.25;3.20;;;25.20;99.90;;;;;;4852997;29;36072;-78
2022/08/02 10:10:47;;;;;;;4.25;3.75;;;25.40;99.90;;;;;;4854393;29;37450;-77
2022/08/02 10:13:14;;;;;;;6.10;4.15;;;25.70;99.90;;;;;;4845635;29;37916;-77
2022/08/02 10:15:40;;;;;;;5.18;3.53;;;25.80;99.90;;;;;;4867985;29;37719;-76
2022/08/02 10:18:07;;;;;;;4.80;3.10;;;25.80;99.90;;;;;;4853280;29;37591;-76
2022/08/02 10:20:43;;;;;;;5.45;2.78;;;25.80;99.90;;;;;;4856023;29;37784;-76
2022/08/02 10:23:12;;;;;;;5.55;2.92;;;25.60;99.90;;;;;;4852620;29;38376;-76
2022/08/02 10:25:40;;;;;;;3.78;2.30;;;25.70;99.90;;;;;;4866646;29;37614;-76
2022/08/02 10:28:07;;;;;;;5.40;1.70;;;25.80;99.90;;;;;;4850567;29;36516;-76
2022/08/02 10:30:37;;;;;;;3.67;1.52;;;26.00;99.90;;;;;;4851868;29;38887;-76
2022/08/02 10:33:04;;;;;;;2.75;1.40;;;26.40;99.90;;;;;;4851393;29;37532;-76
2022/08/02 10:35:36;;;;;;;3.95;2.25;;;26.40;99.90;;;;;;4871456;29;37562;-77
2022/08/02 10:38:06;;;;;;;;;;;26.40;99.90;;;;;;4869018;29;37032;-77
2022/08/02 10:41:06;;;;;;;8.18;2.58;;;26.20;99.90;;;;;;4839434;29;38941;-76
2022/08/02 10:43:35;;;;;;;3.53;1.95;;;26.30;99.90;;;;;;4810457;29;47246;-76
2022/08/02 10:46:30;;;;;;;3.90;2.33;;;26.50;99.90;;;;;;4857923;29;39306;-77
2022/08/02 10:49:14;;;;;;;3.92;2.05;;;26.70;99.90;;;;;;4868603;29;37434;-76
2022/08/02 10:51:56;;;;;;;2.17;1.42;;;26.90;99.90;;;;;;4851963;29;46833;-76
2022/08/02 10:54:24;;;;;;;4.88;2.65;;;27.10;99.90;;;;;;4848407;29;37880;-78
2022/08/02 10:56:52;;;;;;;2.85;2.58;;;27.30;99.90;;;;;;4848754;29;38691;-76
2022/08/02 10:59:35;;;;;;;6.88;3.45;;;27.40;99.90;;;;;;4865299;29;37444;-76
2022/08/02 11:02:04;;;;;;;6.88;3.38;;;27.50;99.90;;;;;;4849278;29;37909;-77
2022/08/02 11:04:42;;;;;;;4.20;3.58;;;27.70;99.90;;;;;;4852936;29;39999;-76
2022/08/02 11:07:16;;;;;;;5.18;4.07;;;27.40;99.90;;;;;;4853651;29;38584;-75
2022/08/02 11:09:44;;;;;;;6.10;3.22;;;27.10;99.90;;;;;;4866778;29;36801;-75
2022/08/02 11:12:20;;;;;;;9.07;4.57;;;27.10;99.90;;;;;;4854631;29;38450;-75
2022/08/02 11:15:06;;;;;;;4.80;3.83;;;26.90;99.90;;;;;;4850304;29;38674;-74
2022/08/02 11:17:57;;;;;;;6.38;4.75;;;26.60;99.90;;;;;;4850312;29;47890;-75
2022/08/02 11:20:25;;;;;;;7.88;4.78;;;26.50;99.90;;;;;;4854015;29;36329;-76
2022/08/02 11:22:53;;;;;;;8.70;4.63;;;26.40;99.90;;;;;;4850201;29;37951;-75
2022/08/02 11:25:25;;;;;;;5.20;4.22;;;26.50;99.90;;;;;;4847971;29;38092;-75
2022/08/02 11:28:09;;;;;;;7.03;4.30;;;26.50;99.90;;;;;;4848361;29;38546;-75
2022/08/02 11:30:36;;;;;;;8.27;3.90;;;26.30;99.90;;;;;;4847868;29;46794;-76
2022/08/02 11:33:02;;;;;;;5.60;3.53;;;26.30;99.90;;;;;;4851541;29;40506;-77
2022/08/02 11:35:37;;;;;;;5.50;4.00;;;26.30;99.90;;;;;;4850906;29;39076;-76
2022/08/02 11:38:18;;;;;;;7.95;3.92;;;26.10;99.90;;;;;;4851568;29;37497;-75
2022/08/02 11:40:46;;;;;;;6.88;4.03;;;26.10;99.90;;;;;;4854210;29;36278;-74
2022/08/02 11:43:17;;;;;;;4.45;3.38;;;26.10;99.90;;;;;;4851955;29;40520;-75
2022/08/02 11:45:44;;;;;;;7.57;3.10;;;26.40;99.90;;;;;;4853143;29;38835;-75
2022/08/02 11:48:10;;;;;;;8.20;2.75;;;26.80;99.90;;;;;;4846961;29;37965;-77
2022/08/02 11:50:36;;;;;;;6.55;2.70;;;27.00;99.90;;;;;;4865906;29;36866;-77
2022/08/02 11:53:12;;;;;;;3.97;2.65;;;27.00;99.90;;;;;;4851162;29;37864;-76
2022/08/02 11:55:38;;;;;;;4.28;2.38;;;27.10;99.90;;;;;;4855763;29;38943;-76
2022/08/02 11:58:06;;;;;;;6.13;3.08;;;27.10;99.90;;;;;;4834355;29;38120;-75
2022/08/02 12:00:32;;;;;;;5.18;2.63;;;27.20;99.90;;;;;;4851481;29;36487;-76
2022/08/02 12:02:59;;;;;;;3.92;2.58;;;27.70;99.90;;;;;;4867998;29;38708;-76
2022/08/02 12:05:28;;;;;;;8.38;3.10;;;27.80;99.90;;;;;;4851083;29;37950;-76
2022/08/02 12:07:54;;;;;;;6.25;3.03;;;27.60;99.90;;;;;;4868502;29;38768;-76
2022/08/02 12:10:24;;;;;;;7.03;3.22;;;27.60;99.90;;;;;;4851002;29;36138;-74
2022/08/02 12:12:58;;;;;;;5.30;2.65;;;27.30;99.90;;;;;;4849094;29;39148;-74
2022/08/02 12:15:33;;;;;;;4.03;2.28;;;27.30;99.90;;;;;;4867040;29;38993;-77
2022/08/02 12:20:45;;;;;;;6.30;2.17;;;27.70;99.90;;;;;;4860490;29;49663;-74
2022/08/02 12:23:12;;;;;;;4.90;1.88;;;27.90;99.90;;;;;;4849744;29;37705;-76
2022/08/02 12:25:38;;;;;;;4.68;2.03;;;28.30;99.90;;;;;;4846277;29;37572;-76
2022/08/02 12:28:14;;;;;;;3.42;1.80;;;28.20;99.90;;;;;;4863289;29;38438;-76
2022/08/02 12:31:12;;;;;;;3.90;1.58;;;28.00;99.90;;;;;;4849148;29;36053;-77
2022/08/02 12:33:49;;;;;;;2.55;1.50;;;28.10;99.90;;;;;;4844187;29;47159;-76
2022/08/02 12:36:23;;;;;;;4.15;1.30;;;28.20;99.90;;;;;;4867217;29;38600;-76
2022/08/02 12:38:56;;;;;;;3.67;1.30;;;28.10;99.90;;;;;;4852289;29;37568;-77
2022/08/02 12:41:24;;;;;;;4.25;1.50;;;28.30;99.90;;;;;;4852610;29;37169;-77
2022/08/02 12:43:51;;;;;;;2.33;1.20;;;28.40;99.90;;;;;;4865212;29;39202;-77
2022/08/02 12:46:22;;;;;;;5.70;1.58;;;28.40;99.90;;;;;;4868012;29;39920;-77
2022/08/02 12:48:49;;;;;;;3.80;1.47;;;28.30;99.90;;;;;;4867655;29;38351;-76
2022/08/02 12:51:19;;;;;;;2.92;1.65;;;28.40;99.90;;;;;;4868719;29;36439;-76
2022/08/02 12:53:46;;;;;;;3.67;1.63;;;28.80;99.90;;;;;;4861301;29;39896;-76
2022/08/02 12:56:25;;;;;;;4.47;1.70;;;28.80;99.90;;;;;;4847633;29;38666;-76
2022/08/02 12:58:51;;;;;;;8.43;1.90;;;28.80;99.90;;;;;;4848766;29;38587;-76
2022/08/02 13:01:27;;;;;;;1.80;1.67;;;28.60;99.90;;;;;;4850704;29;36226;-76
2022/08/02 13:03:54;;;;;;;2.20;1.20;;;28.60;99.90;;;;;;4848357;29;38054;-76
2022/08/02 13:06:21;;;;;;;4.10;1.60;;;29.00;99.90;;;;;;4852590;29;37536;-78
2022/08/02 13:08:49;;;;;;;5.25;1.48;;;29.40;99.90;;;;;;4850579;29;37851;-77